createdAt,value
2019-05-07T00:01:34.233Z,99.90
2019-05-07T00:04:02.093Z,99.90
2019-05-07T00:06:29.888Z,99.90
2019-05-07T00:08:57.713Z,99.90
2019-05-07T00:11:25.528Z,99.90
2019-05-07T00:13:53.360Z,99.90
2019-05-07T00:16:22.393Z,99.90
2019-05-07T00:18:52.515Z,99.90
2019-05-07T00:21:20.236Z,99.90
2019-05-07T00:23:48.091Z,99.90
2019-05-07T00:26:15.918Z,99.90
2019-05-07T00:28:43.716Z,99.90
2019-05-07T00:31:12.381Z,99.90
2019-05-07T00:33:40.379Z,99.90
2019-05-07T00:36:13.911Z,99.90
2019-05-07T00:38:43.559Z,99.90
2019-05-07T00:41:20.040Z,99.90
2019-05-07T00:43:49.859Z,99.90
2019-05-07T00:46:22.503Z,99.90
2019-05-07T00:48:52.304Z,99.90
2019-05-07T00:51:28.435Z,99.90
2019-05-07T00:53:56.228Z,99.90
2019-05-07T00:56:24.116Z,99.90
2019-05-07T00:58:52.794Z,99.90
2019-05-07T01:01:22.733Z,99.90
2019-05-07T01:03:50.389Z,99.90
2019-05-07T01:06:18.264Z,99.90
2019-05-07T01:08:46.052Z,99.90
2019-05-07T01:11:13.815Z,99.90
2019-05-07T01:13:43.194Z,99.90
2019-05-07T01:16:12.880Z,99.90
2019-05-07T01:18:42.066Z,99.90
2019-05-07T01:21:10.115Z,99.90
2019-05-07T01:23:37.892Z,99.90
2019-05-07T01:26:05.995Z,99.90
2019-05-07T01:28:52.998Z,99.90
2019-05-07T01:31:22.194Z,99.90
2019-05-07T01:33:55.091Z,99.90
2019-05-07T01:36:22.872Z,99.90
2019-05-07T01:38:52.264Z,99.90
2019-05-07T01:41:20.286Z,99.90
2019-05-07T01:43:48.069Z,99.90
2019-05-07T01:46:15.849Z,99.90
2019-05-07T01:48:43.639Z,99.90
2019-05-07T01:51:12.858Z,99.90
2019-05-07T01:53:42.927Z,99.90
2019-05-07T01:56:12.387Z,99.90
2019-05-07T01:58:42.321Z,99.90
2019-05-07T02:01:09.527Z,99.90
2019-05-07T02:04:09.278Z,99.90
2019-05-07T02:06:42.918Z,99.90
2019-05-07T02:09:31.165Z,99.90
2019-05-07T02:12:33.257Z,99.90
2019-05-07T02:15:02.652Z,99.90
2019-05-07T02:17:32.218Z,99.90
2019-05-07T02:20:02.426Z,99.90
2019-05-07T02:22:31.847Z,99.90
2019-05-07T02:24:59.144Z,99.90
2019-05-07T02:27:26.915Z,99.90
2019-05-07T02:29:54.711Z,99.90
2019-05-07T02:32:24.150Z,99.90
2019-05-07T02:34:54.459Z,99.90
2019-05-07T02:37:35.738Z,99.90
2019-05-07T02:40:22.972Z,99.90
2019-05-07T02:42:53.584Z,99.90
2019-05-07T02:45:26.126Z,99.90
2019-05-07T02:47:53.896Z,99.90
2019-05-07T02:50:27.435Z,99.90
2019-05-07T02:53:17.459Z,99.90
2019-05-07T02:55:49.081Z,99.90
2019-05-07T02:58:16.933Z,99.90
2019-05-07T03:00:44.732Z,99.90
2019-05-07T03:03:13.763Z,99.90
2019-05-07T03:05:43.182Z,99.90
2019-05-07T03:08:13.460Z,99.90
2019-05-07T03:10:43.487Z,99.90
2019-05-07T03:13:13.447Z,99.90
2019-05-07T03:15:43.207Z,99.90
2019-05-07T03:18:09.717Z,99.90
2019-05-07T03:20:45.961Z,99.90
2019-05-07T03:23:15.953Z,99.90
2019-05-07T03:26:03.989Z,99.90
2019-05-07T03:28:33.880Z,99.90
2019-05-07T03:31:09.017Z,99.90
2019-05-07T03:33:48.255Z,99.90
2019-05-07T03:36:17.234Z,99.90
2019-05-07T03:38:45.561Z,99.90
2019-05-07T03:41:13.432Z,99.90
2019-05-07T03:43:43.504Z,99.90
2019-05-07T03:46:14.087Z,99.90
2019-05-07T03:48:44.079Z,99.90
2019-05-07T03:51:13.150Z,99.90
2019-05-07T03:53:43.486Z,99.90
2019-05-07T03:56:13.087Z,99.90
2019-05-07T03:58:42.852Z,99.90
2019-05-07T04:01:13.120Z,99.90
2019-05-07T04:03:39.803Z,99.90
2019-05-07T04:06:07.598Z,99.90
2019-05-07T04:08:35.380Z,99.90
2019-05-07T04:11:03.905Z,99.90
2019-05-07T04:13:33.457Z,99.90
2019-05-07T04:16:04.050Z,99.90
2019-05-07T04:18:33.016Z,99.90
2019-05-07T04:21:03.841Z,99.90
2019-05-07T04:23:30.308Z,99.90
2019-05-07T04:26:04.783Z,99.90
2019-05-07T04:28:49.091Z,99.90
2019-05-07T04:31:16.924Z,99.90
2019-05-07T04:33:44.972Z,99.90
2019-05-07T04:36:25.498Z,99.90
2019-05-07T04:38:53.428Z,99.90
2019-05-07T04:41:23.346Z,99.90
2019-05-07T04:43:53.844Z,99.90
2019-05-07T04:46:23.313Z,99.90
2019-05-07T04:48:52.614Z,99.90
2019-05-07T04:51:25.718Z,99.90
2019-05-07T04:53:54.178Z,99.90
2019-05-07T04:56:23.810Z,99.90
2019-05-07T04:58:53.113Z,99.90
2019-05-07T05:01:23.569Z,99.90
2019-05-07T05:03:54.003Z,99.90
2019-05-07T05:06:23.855Z,99.90
2019-05-07T05:08:55.379Z,99.90
2019-05-07T05:11:20.315Z,99.90
2019-05-07T05:13:48.171Z,99.90
2019-05-07T05:16:26.745Z,99.90
2019-05-07T05:18:56.109Z,99.90
2019-05-07T05:21:32.976Z,99.90
2019-05-07T05:24:04.775Z,99.90
2019-05-07T05:26:32.655Z,99.90
2019-05-07T05:29:02.392Z,99.90
2019-05-07T05:31:30.364Z,99.90
2019-05-07T05:33:58.166Z,99.90
2019-05-07T05:36:26.008Z,99.90
2019-05-07T05:38:53.803Z,99.90
2019-05-07T05:41:22.673Z,99.90
2019-05-07T05:44:02.392Z,99.90
2019-05-07T05:46:32.021Z,99.90
2019-05-07T05:49:02.467Z,99.90
2019-05-07T05:51:55.041Z,99.90
2019-05-07T05:54:42.595Z,99.90
2019-05-07T05:57:19.545Z,99.90
2019-05-07T06:00:12.464Z,99.90
2019-05-07T06:02:53.545Z,99.90
2019-05-07T06:05:43.456Z,99.90
2019-05-07T06:08:36.640Z,99.90
2019-05-07T06:11:19.266Z,99.90
2019-05-07T06:13:54.072Z,99.90
2019-05-07T06:16:25.100Z,99.90
2019-05-07T06:19:22.597Z,99.90
2019-05-07T06:22:18.813Z,99.90
2019-05-07T06:25:15.439Z,99.90
2019-05-07T06:27:43.354Z,99.90
2019-05-07T06:30:12.120Z,99.90
2019-05-07T06:32:42.765Z,99.90
2019-05-07T06:35:12.143Z,99.90
2019-05-07T06:37:39.575Z,99.90
2019-05-07T06:40:32.964Z,99.90
2019-05-07T06:43:12.693Z,99.90
2019-05-07T06:45:43.483Z,99.90
2019-05-07T06:48:12.623Z,99.90
2019-05-07T06:50:43.216Z,99.90
2019-05-07T06:53:12.056Z,99.90
2019-05-07T06:55:39.945Z,99.90
2019-05-07T06:58:09.211Z,99.90
2019-05-07T07:01:08.299Z,99.90
2019-05-07T07:03:42.003Z,99.90
2019-05-07T07:06:23.647Z,99.90
2019-05-07T07:09:03.038Z,99.90
2019-05-07T07:11:38.500Z,99.90
2019-05-07T07:14:06.339Z,99.90
2019-05-07T07:16:34.210Z,99.90
2019-05-07T07:19:03.369Z,99.90
2019-05-07T07:21:32.705Z,99.90
2019-05-07T07:24:02.851Z,99.90
2019-05-07T07:26:30.149Z,99.90
2019-05-07T07:28:57.916Z,99.90
2019-05-07T07:31:31.741Z,99.90
2019-05-07T07:34:02.229Z,99.90
2019-05-07T07:36:32.752Z,99.90
2019-05-07T07:39:02.044Z,99.90
2019-05-07T07:41:52.266Z,99.90
2019-05-07T07:44:22.307Z,99.90
2019-05-07T07:46:49.972Z,99.90
2019-05-07T07:49:17.860Z,99.90
2019-05-07T07:51:45.974Z,99.90
2019-05-07T07:54:13.985Z,99.90
2019-05-07T07:57:02.282Z,99.90
2019-05-07T08:00:02.649Z,99.90
2019-05-07T08:02:42.673Z,99.90
2019-05-07T08:05:12.483Z,99.90
2019-05-07T08:07:42.447Z,99.90
2019-05-07T08:10:09.940Z,99.90
2019-05-07T08:12:37.849Z,99.90
2019-05-07T08:15:16.859Z,99.90
2019-05-07T08:17:35.809Z,99.90
2019-05-07T08:20:03.782Z,99.90
2019-05-07T08:22:33.010Z,99.90
2019-05-07T08:25:01.955Z,99.90
2019-05-07T08:27:29.820Z,99.90
2019-05-07T08:29:57.907Z,99.90
2019-05-07T08:32:38.565Z,99.90
2019-05-07T08:35:35.315Z,99.90
2019-05-07T08:38:03.121Z,99.90
2019-05-07T08:40:32.560Z,99.90
2019-05-07T08:43:00.644Z,99.90
2019-05-07T08:45:46.683Z,99.90
2019-05-07T08:48:19.266Z,99.90
2019-05-07T08:50:47.032Z,99.90
2019-05-07T08:53:14.846Z,99.90
2019-05-07T08:55:42.651Z,99.90
2019-05-07T08:58:12.049Z,99.90
2019-05-07T09:00:41.793Z,99.90
2019-05-07T09:03:20.113Z,99.90
2019-05-07T09:05:39.264Z,99.90
2019-05-07T09:08:07.093Z,99.90
2019-05-07T09:10:35.029Z,99.90
2019-05-07T09:13:02.933Z,99.90
2019-05-07T09:15:32.011Z,99.90
2019-05-07T09:18:02.026Z,99.90
2019-05-07T09:20:31.981Z,99.90
2019-05-07T09:23:01.982Z,99.90
2019-05-07T09:25:29.204Z,99.90
2019-05-07T09:27:57.182Z,99.90
2019-05-07T09:30:52.298Z,99.90
2019-05-07T09:33:35.643Z,99.90
2019-05-07T09:36:03.868Z,99.90
2019-05-07T09:38:32.776Z,99.90
2019-05-07T09:41:02.725Z,99.90
2019-05-07T09:43:32.280Z,99.90
2019-05-07T09:46:00.008Z,99.90
2019-05-07T09:48:27.892Z,99.90
2019-05-07T09:50:55.677Z,99.90
2019-05-07T09:53:23.484Z,99.90
2019-05-07T09:55:51.654Z,99.90
2019-05-07T09:58:33.147Z,99.90
2019-05-07T10:00:49.100Z,99.90
2019-05-07T10:03:16.994Z,99.90
2019-05-07T10:05:45.071Z,99.90
2019-05-07T10:08:13.170Z,99.90
2019-05-07T10:10:41.746Z,99.90
2019-05-07T10:13:35.496Z,99.90
2019-05-07T10:16:04.303Z,99.90
2019-05-07T10:18:32.866Z,99.90
2019-05-07T10:21:02.546Z,99.90
2019-05-07T10:23:30.308Z,99.90
2019-05-07T10:25:58.211Z,99.90
2019-05-07T10:28:26.108Z,99.90
2019-05-07T10:30:54.361Z,99.90
2019-05-07T10:33:22.965Z,99.90
2019-05-07T10:35:52.693Z,99.90
2019-05-07T10:38:21.854Z,99.90
2019-05-07T10:40:49.996Z,99.90
2019-05-07T10:43:17.984Z,99.90
2019-05-07T10:45:56.740Z,99.90
2019-05-07T10:48:56.516Z,99.90
2019-05-07T10:51:24.798Z,99.90
2019-05-07T10:53:52.632Z,99.90
2019-05-07T10:56:22.313Z,99.90
2019-05-07T10:58:52.168Z,99.90
2019-05-07T11:01:25.718Z,99.90
2019-05-07T11:03:53.517Z,99.90
2019-05-07T11:06:22.105Z,99.90
2019-05-07T11:08:51.412Z,99.90
2019-05-07T11:11:19.583Z,99.90
2019-05-07T11:13:47.412Z,99.90
2019-05-07T11:16:16.809Z,99.90
2019-05-07T11:18:46.708Z,99.90
2019-05-07T11:21:14.512Z,99.90
2019-05-07T11:23:42.379Z,99.90
2019-05-07T11:26:11.837Z,99.90
2019-05-07T11:28:39.848Z,99.90
2019-05-07T11:31:08.144Z,99.90
2019-05-07T11:33:35.938Z,99.90
2019-05-07T11:36:03.875Z,99.90
2019-05-07T11:38:33.346Z,99.90
2019-05-07T11:41:02.342Z,99.90
2019-05-07T11:43:48.748Z,99.90
2019-05-07T11:46:32.749Z,99.90
2019-05-07T11:49:19.353Z,99.90
2019-05-07T11:51:53.009Z,99.90
2019-05-07T11:54:20.852Z,99.90
2019-05-07T11:56:48.684Z,99.90
2019-05-07T11:59:16.490Z,99.00
2019-05-07T12:01:48.154Z,99.40
2019-05-07T12:04:16.247Z,99.90
2019-05-07T12:06:44.065Z,99.90
2019-05-07T12:09:12.190Z,99.90
2019-05-07T12:11:42.417Z,99.90
2019-05-07T12:14:09.816Z,99.90
2019-05-07T12:16:37.631Z,99.90
2019-05-07T12:19:05.473Z,99.90
2019-05-07T12:21:33.444Z,98.80
2019-05-07T12:24:02.137Z,98.50
2019-05-07T12:26:31.335Z,99.70
2019-05-07T12:28:59.115Z,95.40
2019-05-07T12:31:44.340Z,94.70
2019-05-07T12:34:15.824Z,94.10
2019-05-07T12:36:43.801Z,92.90
2019-05-07T12:39:12.756Z,92.60
2019-05-07T12:41:41.915Z,90.60
2019-05-07T12:44:12.899Z,92.30
2019-05-07T12:46:42.296Z,89.60
2019-05-07T12:49:11.957Z,90.40
2019-05-07T12:51:50.056Z,80.00
2019-05-07T12:54:30.095Z,80.40
2019-05-07T12:57:06.600Z,76.80
2019-05-07T12:59:34.418Z,77.10
2019-05-07T13:02:26.739Z,79.70
2019-05-07T13:04:43.120Z,81.10
2019-05-07T13:07:33.149Z,74.00
2019-05-07T13:10:02.593Z,70.30
2019-05-07T13:12:32.181Z,72.60
2019-05-07T13:15:02.768Z,67.40
2019-05-07T13:17:29.835Z,61.30
2019-05-07T13:19:57.636Z,64.20
2019-05-07T13:22:25.444Z,63.50
2019-05-07T13:24:53.242Z,58.20
2019-05-07T13:27:21.036Z,55.30
2019-05-07T13:29:48.821Z,54.70
2019-05-07T13:32:17.198Z,54.30
2019-05-07T13:34:45.547Z,54.70
2019-05-07T13:37:18.336Z,54.40
2019-05-07T13:39:51.991Z,54.80
2019-05-07T13:42:43.987Z,54.50
2019-05-07T13:45:34.616Z,53.40
2019-05-07T13:48:08.890Z,52.20
2019-05-07T13:50:36.700Z,52.20
2019-05-07T13:53:04.552Z,54.70
2019-05-07T13:55:32.503Z,55.30
2019-05-07T13:58:00.509Z,54.40
2019-05-07T14:00:33.234Z,54.30
2019-05-07T14:03:03.199Z,54.50
2019-05-07T14:05:32.379Z,55.00
2019-05-07T14:08:00.528Z,55.40
2019-05-07T14:10:28.325Z,57.00
2019-05-07T14:13:07.590Z,59.10
2019-05-07T14:15:25.653Z,59.00
2019-05-07T14:17:55.078Z,57.70
2019-05-07T14:20:23.128Z,56.10
2019-05-07T14:22:51.694Z,55.50
2019-05-07T14:25:19.618Z,56.70
2019-05-07T14:27:47.737Z,57.30
2019-05-07T14:30:16.212Z,57.30
2019-05-07T14:32:48.757Z,56.20
2019-05-07T14:35:25.220Z,55.40
2019-05-07T14:38:00.004Z,57.60
2019-05-07T14:40:27.883Z,58.40
2019-05-07T14:43:09.810Z,59.50
2019-05-07T14:45:37.739Z,59.50
2019-05-07T14:48:05.637Z,58.60
2019-05-07T14:50:33.504Z,56.90
2019-05-07T14:53:02.750Z,53.10
2019-05-07T14:55:32.484Z,53.20
2019-05-07T14:58:01.832Z,56.30
2019-05-07T15:00:29.781Z,56.40
2019-05-07T15:02:57.572Z,56.40
2019-05-07T15:05:25.843Z,55.50
2019-05-07T15:08:06.613Z,56.00
2019-05-07T15:10:23.239Z,56.10
2019-05-07T15:12:52.153Z,57.90
2019-05-07T15:15:21.968Z,56.80
2019-05-07T15:17:55.085Z,58.20
2019-05-07T15:20:22.893Z,56.30
2019-05-07T15:23:04.447Z,57.10
2019-05-07T15:25:32.343Z,57.10
2019-05-07T15:28:01.791Z,55.80
2019-05-07T15:30:37.722Z,55.90
2019-05-07T15:33:05.593Z,54.80
2019-05-07T15:35:33.521Z,54.50
2019-05-07T15:38:02.410Z,53.90
2019-05-07T15:40:32.829Z,54.40
2019-05-07T15:43:02.156Z,54.70
2019-05-07T15:45:29.568Z,55.00
2019-05-07T15:47:58.168Z,55.50
2019-05-07T15:50:28.432Z,55.20
2019-05-07T15:53:12.316Z,56.40
2019-05-07T15:55:41.734Z,55.80
2019-05-07T15:58:09.736Z,56.60
2019-05-07T16:00:38.011Z,56.70
2019-05-07T16:03:12.082Z,56.50
2019-05-07T16:05:42.234Z,57.00
2019-05-07T16:08:12.351Z,57.00
2019-05-07T16:10:42.163Z,56.70
2019-05-07T16:13:11.864Z,56.60
2019-05-07T16:15:42.337Z,56.40
2019-05-07T16:18:14.598Z,56.20
2019-05-07T16:20:42.965Z,56.40
2019-05-07T16:23:15.687Z,55.70
2019-05-07T16:25:42.117Z,55.80
2019-05-07T16:28:12.612Z,56.60
2019-05-07T16:30:39.699Z,57.10
2019-05-07T16:33:07.508Z,56.40
2019-05-07T16:35:35.383Z,55.90
2019-05-07T16:38:03.170Z,56.60
2019-05-07T16:40:32.344Z,56.60
2019-05-07T16:43:02.592Z,57.10
2019-05-07T16:45:29.860Z,56.30
2019-05-07T16:48:00.374Z,56.50
2019-05-07T16:50:27.184Z,57.50
2019-05-07T16:52:55.012Z,57.60
2019-05-07T16:55:25.805Z,57.80
2019-05-07T16:58:02.077Z,58.00
2019-05-07T17:00:37.144Z,58.30
2019-05-07T17:03:07.136Z,57.40
2019-05-07T17:05:34.942Z,57.70
2019-05-07T17:08:31.895Z,58.90
2019-05-07T17:10:59.874Z,59.50
2019-05-07T17:13:27.686Z,58.50
2019-05-07T17:15:59.288Z,58.40
2019-05-07T17:18:27.621Z,58.10
2019-05-07T17:20:55.992Z,58.90
2019-05-07T17:23:24.157Z,58.60
2019-05-07T17:25:52.561Z,59.60
2019-05-07T17:28:22.788Z,59.80
2019-05-07T17:30:52.307Z,60.70
2019-05-07T17:33:19.710Z,60.90
2019-05-07T17:35:47.484Z,61.10
2019-05-07T17:38:15.309Z,61.60
2019-05-07T17:40:43.112Z,62.50
2019-05-07T17:43:12.302Z,62.70
2019-05-07T17:45:40.330Z,63.30
2019-05-07T17:48:08.214Z,64.40
2019-05-07T17:50:44.684Z,65.50
2019-05-07T17:53:12.516Z,66.00
2019-05-07T17:55:42.173Z,65.60
2019-05-07T17:58:09.972Z,65.60
2019-05-07T18:00:38.431Z,65.60
2019-05-07T18:03:32.023Z,66.30
2019-05-07T18:06:01.979Z,67.00
2019-05-07T18:08:29.286Z,67.80
2019-05-07T18:10:57.382Z,69.30
2019-05-07T18:13:25.172Z,73.20
2019-05-07T18:15:54.253Z,77.00
2019-05-07T18:18:22.576Z,80.10
2019-05-07T18:20:50.373Z,81.90
2019-05-07T18:23:18.183Z,83.60
2019-05-07T18:25:47.005Z,86.10
2019-05-07T18:28:16.094Z,88.90
2019-05-07T18:30:44.064Z,91.40
2019-05-07T18:33:26.468Z,92.60
2019-05-07T18:35:54.272Z,94.10
2019-05-07T18:38:22.468Z,95.80
2019-05-07T18:40:50.385Z,99.10
2019-05-07T18:43:18.335Z,99.90
2019-05-07T18:45:46.099Z,99.90
2019-05-07T18:48:13.949Z,99.90
2019-05-07T18:50:42.043Z,99.90
2019-05-07T18:53:11.989Z,99.90
2019-05-07T18:55:39.451Z,99.90
2019-05-07T18:58:07.244Z,99.90
2019-05-07T19:00:38.420Z,99.90
2019-05-07T19:03:06.290Z,99.90
2019-05-07T19:05:34.095Z,99.90
2019-05-07T19:08:07.803Z,99.90
2019-05-07T19:10:32.933Z,99.90
2019-05-07T19:13:00.990Z,99.90
2019-05-07T19:15:28.863Z,99.90
2019-05-07T19:17:56.940Z,99.90
2019-05-07T19:20:24.998Z,99.90
2019-05-07T19:22:52.782Z,99.90
2019-05-07T19:25:20.932Z,99.90
2019-05-07T19:27:48.728Z,99.90
2019-05-07T19:30:17.590Z,99.90
2019-05-07T19:32:45.374Z,99.90
2019-05-07T19:35:13.283Z,99.90
2019-05-07T19:37:42.525Z,99.90
2019-05-07T19:40:12.479Z,99.90
2019-05-07T19:42:42.628Z,99.90
2019-05-07T19:45:09.884Z,99.90
2019-05-07T19:47:37.712Z,99.90
2019-05-07T19:50:05.706Z,99.90
2019-05-07T19:52:33.488Z,99.90
2019-05-07T19:55:04.604Z,99.90
2019-05-07T19:57:35.154Z,99.90
2019-05-07T20:00:03.090Z,99.90
2019-05-07T20:02:36.227Z,99.90
2019-05-07T20:05:04.149Z,99.90
2019-05-07T20:07:32.383Z,99.90
2019-05-07T20:10:02.544Z,99.90
2019-05-07T20:12:32.096Z,99.90
2019-05-07T20:14:59.409Z,99.90
2019-05-07T20:17:30.342Z,99.90
2019-05-07T20:19:56.825Z,99.90
2019-05-07T20:22:24.634Z,99.90
2019-05-07T20:24:52.842Z,99.90
2019-05-07T20:27:20.716Z,99.90
2019-05-07T20:29:48.496Z,99.90
2019-05-07T20:32:16.314Z,99.90
2019-05-07T20:34:44.076Z,99.90
2019-05-07T20:37:12.913Z,99.90
2019-05-07T20:39:42.670Z,99.90
2019-05-07T20:42:12.405Z,99.90
2019-05-07T20:44:42.445Z,99.90
2019-05-07T20:47:09.680Z,99.90
2019-05-07T20:49:37.464Z,99.90
2019-05-07T20:52:05.252Z,99.90
2019-05-07T20:54:44.132Z,99.90
2019-05-07T20:57:17.966Z,99.90
2019-05-07T20:59:45.786Z,99.90
2019-05-07T21:02:13.593Z,99.90
2019-05-07T21:04:42.434Z,99.90
2019-05-07T21:07:11.841Z,99.90
2019-05-07T21:09:42.115Z,99.90
2019-05-07T21:12:09.356Z,99.90
2019-05-07T21:14:37.135Z,99.90
2019-05-07T21:17:05.219Z,99.90
2019-05-07T21:19:33.369Z,99.90
2019-05-07T21:22:02.117Z,99.90
2019-05-07T21:24:30.175Z,99.90
2019-05-07T21:26:58.166Z,99.90
2019-05-07T21:29:25.956Z,99.90
2019-05-07T21:31:53.776Z,99.90
2019-05-07T21:34:22.992Z,99.90
2019-05-07T21:36:52.415Z,99.90
2019-05-07T21:39:22.273Z,99.90
2019-05-07T21:41:51.877Z,99.90
2019-05-07T21:44:19.456Z,99.90
2019-05-07T21:46:47.368Z,99.90
2019-05-07T21:49:15.201Z,99.90
2019-05-07T21:51:42.987Z,99.90
2019-05-07T21:54:36.120Z,99.90
2019-05-07T21:57:22.246Z,99.90
2019-05-07T22:00:08.761Z,99.90
2019-05-07T22:02:36.634Z,99.90
2019-05-07T22:05:04.452Z,99.90
2019-05-07T22:07:32.281Z,99.90
2019-05-07T22:10:02.079Z,99.90
2019-05-07T22:12:31.900Z,99.90
2019-05-07T22:14:59.131Z,99.90
2019-05-07T22:17:26.924Z,99.90
2019-05-07T22:19:55.012Z,99.90
2019-05-07T22:22:24.321Z,99.90
2019-05-07T22:24:53.123Z,99.90
2019-05-07T22:27:22.123Z,99.90
2019-05-07T22:29:50.080Z,99.90
2019-05-07T22:32:31.709Z,99.90
2019-05-07T22:35:05.251Z,99.90
2019-05-07T22:37:33.040Z,99.90
2019-05-07T22:40:02.756Z,99.90
2019-05-07T22:42:32.580Z,99.90
2019-05-07T22:44:59.869Z,99.90
2019-05-07T22:47:27.654Z,99.90
2019-05-07T22:49:55.424Z,99.90
2019-05-07T22:52:23.228Z,99.90
2019-05-07T22:54:51.004Z,99.90
2019-05-07T22:57:47.065Z,99.90
2019-05-07T23:00:22.892Z,99.90
2019-05-07T23:02:51.711Z,99.90
2019-05-07T23:05:22.854Z,99.90
2019-05-07T23:07:50.014Z,99.90
2019-05-07T23:10:17.787Z,99.90
2019-05-07T23:12:45.606Z,99.90
2019-05-07T23:15:13.714Z,99.90
2019-05-07T23:17:41.568Z,99.90
2019-05-07T23:20:09.437Z,99.90
2019-05-07T23:22:37.235Z,99.90
2019-05-07T23:25:05.104Z,99.90
2019-05-07T23:27:32.912Z,99.90
2019-05-07T23:30:02.600Z,99.90
2019-05-07T23:32:30.291Z,99.90
2019-05-07T23:34:58.067Z,99.90
2019-05-07T23:37:25.857Z,99.90
2019-05-07T23:39:55.593Z,99.90
2019-05-07T23:42:27.446Z,99.90
2019-05-07T23:44:55.173Z,99.90
2019-05-07T23:47:22.952Z,99.90
2019-05-07T23:49:52.398Z,99.90
2019-05-07T23:52:22.547Z,99.90
2019-05-07T23:54:52.137Z,99.90
2019-05-07T23:57:19.857Z,99.90
2019-05-07T23:59:47.714Z,99.90
